KRST

Rochester International Airport

Rochester, Minnesota, USA
METAR KRST 231054Z 15007KT 7SM BKN070 OVC085 14/14 A3014 RMK AO2 SLP202 T01440144
Observed Flight Rules
May-23 @ 10:54 UTC (12 minutes ago) Visual Flight Rules
Wind Visibility Clouds
150° at 7 knots 7 miles
  • Broken at 7,000' AGL
  • Overcast at 8,500' AGL
Temperatures Readings
Current 14°C / 57°F
Dewpoint 14°C / 57°F
Humidity 100%
Altimeter 30.14" Hg
Pressure 1020.2 hPa
Elevation 403
METAR KRST 231054Z 15007KT 7SM BKN070 OVC085 14/14 A3014 RMK AO2 SLP202 T01440144
Observed Flight Rules
May-23 @ 10:54 UTC
(12 minutes ago)
VFR
Wind Visibility
150° at 7 knots 7 miles
Clouds
  • Broken at 7,000' AGL
  • Overcast at 8,500' AGL
Temperature Dewpoint
14°C / 57°F 14°C / 57°F
Humidity Altimeter Pressure
100% 30.14" Hg 1020.2 hPa